sensor_id;sensor_type;location;lat;lon;timestamp;P1;durP1;ratioP1;P2;durP2;ratioP2
78079;SDS011;67298;51.322;5.958;2023-07-02T00:03:45;12.7;;;7.9;;
78079;SDS011;67298;51.322;5.958;2023-07-02T00:08:25;15.7;;;9.6;;
78079;SDS011;67298;51.322;5.958;2023-07-02T00:13:04;6.2;;;4.6;;
78079;SDS011;67298;51.322;5.958;2023-07-02T00:17:43;7.6;;;4.9;;
78079;SDS011;67298;51.322;5.958;2023-07-02T00:22:23;8.4;;;5.2;;
78079;SDS011;67298;51.322;5.958;2023-07-02T00:27:02;7.3;;;5.7;;
78079;SDS011;67298;51.322;5.958;2023-07-02T00:31:41;10.8;;;7.5;;
78079;SDS011;67298;51.322;5.958;2023-07-02T00:36:21;7.4;;;5.3;;
78079;SDS011;67298;51.322;5.958;2023-07-02T00:41:00;6.8;;;5.0;;
78079;SDS011;67298;51.322;5.958;2023-07-02T00:45:39;7.0;;;4.5;;
78079;SDS011;67298;51.322;5.958;2023-07-02T00:50:19;6.0;;;5.4;;
78079;SDS011;67298;51.322;5.958;2023-07-02T00:54:58;6.6;;;5.5;;
78079;SDS011;67298;51.322;5.958;2023-07-02T00:59:38;6.6;;;4.8;;
78079;SDS011;67298;51.322;5.958;2023-07-02T01:04:17;6.6;;;5.5;;
78079;SDS011;67298;51.322;5.958;2023-07-02T01:08:57;6.5;;;5.0;;
78079;SDS011;67298;51.322;5.958;2023-07-02T01:13:36;4.3;;;3.8;;
78079;SDS011;67298;51.322;5.958;2023-07-02T01:18:15;6.4;;;5.0;;
78079;SDS011;67298;51.322;5.958;2023-07-02T01:22:55;7.5;;;4.8;;
78079;SDS011;67298;51.322;5.958;2023-07-02T01:27:34;5.0;;;4.5;;
78079;SDS011;67298;51.322;5.958;2023-07-02T01:32:13;5.2;;;4.7;;
78079;SDS011;67298;51.322;5.958;2023-07-02T01:36:53;4.6;;;4.2;;
78079;SDS011;67298;51.322;5.958;2023-07-02T01:41:33;5.2;;;4.7;;
78079;SDS011;67298;51.322;5.958;2023-07-02T01:46:12;6.6;;;4.7;;
78079;SDS011;67298;51.322;5.958;2023-07-02T01:50:52;10.3;;;5.1;;
78079;SDS011;67298;51.322;5.958;2023-07-02T01:55:31;8.0;;;5.0;;
78079;SDS011;67298;51.322;5.958;2023-07-02T02:00:10;4.1;;;3.7;;
78079;SDS011;67298;51.322;5.958;2023-07-02T02:04:50;2.6;;;1.8;;
78079;SDS011;67298;51.322;5.958;2023-07-02T02:09:29;4.1;;;3.7;;
78079;SDS011;67298;51.322;5.958;2023-07-02T02:14:09;5.1;;;2.9;;
78079;SDS011;67298;51.322;5.958;2023-07-02T02:18:48;4.6;;;2.9;;
78079;SDS011;67298;51.322;5.958;2023-07-02T02:23:27;2.7;;;2.2;;
78079;SDS011;67298;51.322;5.958;2023-07-02T02:28:07;1.8;;;1.6;;
78079;SDS011;67298;51.322;5.958;2023-07-02T02:32:46;3.9;;;1.9;;
78079;SDS011;67298;51.322;5.958;2023-07-02T02:37:25;1.6;;;1.5;;
78079;SDS011;67298;51.322;5.958;2023-07-02T02:42:05;2.0;;;1.8;;
78079;SDS011;67298;51.322;5.958;2023-07-02T02:46:45;2.1;;;1.5;;
78079;SDS011;67298;51.322;5.958;2023-07-02T02:51:24;1.1;;;1.0;;
78079;SDS011;67298;51.322;5.958;2023-07-02T02:56:03;2.4;;;1.4;;
78079;SDS011;67298;51.322;5.958;2023-07-02T03:00:43;1.5;;;1.4;;
78079;SDS011;67298;51.322;5.958;2023-07-02T03:05:22;1.0;;;1.0;;
78079;SDS011;67298;51.322;5.958;2023-07-02T03:10:01;1.8;;;0.9;;
78079;SDS011;67298;51.322;5.958;2023-07-02T03:14:41;2.2;;;1.6;;
78079;SDS011;67298;51.322;5.958;2023-07-02T03:19:24;1.3;;;1.1;;
78079;SDS011;67298;51.322;5.958;2023-07-02T03:24:08;1.3;;;1.1;;
78079;SDS011;67298;51.322;5.958;2023-07-02T03:28:48;0.7;;;0.7;;
78079;SDS011;67298;51.322;5.958;2023-07-02T03:33:28;1.7;;;1.3;;
78079;SDS011;67298;51.322;5.958;2023-07-02T03:38:07;1.4;;;1.2;;
78079;SDS011;67298;51.322;5.958;2023-07-02T03:42:46;1.8;;;1.2;;
78079;SDS011;67298;51.322;5.958;2023-07-02T03:47:26;1.2;;;1.1;;
78079;SDS011;67298;51.322;5.958;2023-07-02T03:52:05;3.5;;;1.0;;
78079;SDS011;67298;51.322;5.958;2023-07-02T03:56:44;2.0;;;1.2;;
78079;SDS011;67298;51.322;5.958;2023-07-02T04:01:24;1.6;;;1.5;;
78079;SDS011;67298;51.322;5.958;2023-07-02T04:06:03;2.0;;;1.8;;
78079;SDS011;67298;51.322;5.958;2023-07-02T04:10:42;2.6;;;1.5;;
78079;SDS011;67298;51.322;5.958;2023-07-02T04:15:22;2.6;;;1.4;;
78079;SDS011;67298;51.322;5.958;2023-07-02T04:20:01;3.1;;;1.4;;
78079;SDS011;67298;51.322;5.958;2023-07-02T04:24:41;2.3;;;1.4;;
78079;SDS011;67298;51.322;5.958;2023-07-02T04:29:20;3.5;;;1.9;;
78079;SDS011;67298;51.322;5.958;2023-07-02T04:34:00;2.4;;;1.6;;
78079;SDS011;67298;51.322;5.958;2023-07-02T04:38:39;2.9;;;1.5;;
78079;SDS011;67298;51.322;5.958;2023-07-02T04:43:18;0.3;;;0.3;;
78079;SDS011;67298;51.322;5.958;2023-07-02T04:47:58;2.0;;;1.5;;
78079;SDS011;67298;51.322;5.958;2023-07-02T04:52:37;2.1;;;1.5;;
78079;SDS011;67298;51.322;5.958;2023-07-02T04:57:17;2.5;;;1.5;;
78079;SDS011;67298;51.322;5.958;2023-07-02T05:01:56;3.8;;;1.8;;
78079;SDS011;67298;51.322;5.958;2023-07-02T05:06:36;2.7;;;1.0;;
78079;SDS011;67298;51.322;5.958;2023-07-02T05:11:15;3.2;;;1.8;;
78079;SDS011;67298;51.322;5.958;2023-07-02T05:15:54;4.3;;;1.7;;
78079;SDS011;67298;51.322;5.958;2023-07-02T05:20:34;3.7;;;1.9;;
78079;SDS011;67298;51.322;5.958;2023-07-02T05:25:13;3.6;;;1.8;;
78079;SDS011;67298;51.322;5.958;2023-07-02T05:29:52;1.9;;;1.8;;
78079;SDS011;67298;51.322;5.958;2023-07-02T05:34:32;2.8;;;2.0;;
78079;SDS011;67298;51.322;5.958;2023-07-02T05:39:11;3.1;;;1.7;;
78079;SDS011;67298;51.322;5.958;2023-07-02T05:43:51;1.7;;;1.3;;
78079;SDS011;67298;51.322;5.958;2023-07-02T05:48:30;5.1;;;2.0;;
78079;SDS011;67298;51.322;5.958;2023-07-02T05:53:09;3.1;;;1.7;;
78079;SDS011;67298;51.322;5.958;2023-07-02T05:57:49;3.2;;;2.3;;
78079;SDS011;67298;51.322;5.958;2023-07-02T06:02:28;4.0;;;2.0;;
78079;SDS011;67298;51.322;5.958;2023-07-02T06:07:07;4.3;;;1.8;;
78079;SDS011;67298;51.322;5.958;2023-07-02T06:11:47;2.4;;;1.9;;
78079;SDS011;67298;51.322;5.958;2023-07-02T06:16:26;1.9;;;1.8;;
78079;SDS011;67298;51.322;5.958;2023-07-02T06:21:05;2.2;;;2.0;;
78079;SDS011;67298;51.322;5.958;2023-07-02T06:25:45;3.7;;;2.1;;
78079;SDS011;67298;51.322;5.958;2023-07-02T06:30:24;2.3;;;1.4;;
78079;SDS011;67298;51.322;5.958;2023-07-02T06:35:04;3.5;;;2.0;;
78079;SDS011;67298;51.322;5.958;2023-07-02T06:39:43;4.1;;;2.3;;
78079;SDS011;67298;51.322;5.958;2023-07-02T06:44:22;2.1;;;1.8;;
78079;SDS011;67298;51.322;5.958;2023-07-02T06:49:02;4.1;;;2.3;;
78079;SDS011;67298;51.322;5.958;2023-07-02T06:53:41;3.3;;;1.7;;
78079;SDS011;67298;51.322;5.958;2023-07-02T06:58:20;5.0;;;2.1;;
78079;SDS011;67298;51.322;5.958;2023-07-02T07:03:00;3.1;;;2.1;;
78079;SDS011;67298;51.322;5.958;2023-07-02T07:07:39;3.5;;;2.3;;
78079;SDS011;67298;51.322;5.958;2023-07-02T07:12:19;3.8;;;2.5;;
78079;SDS011;67298;51.322;5.958;2023-07-02T07:16:58;3.5;;;2.7;;
78079;SDS011;67298;51.322;5.958;2023-07-02T07:21:37;2.1;;;1.0;;
78079;SDS011;67298;51.322;5.958;2023-07-02T07:26:17;4.1;;;2.6;;
78079;SDS011;67298;51.322;5.958;2023-07-02T07:30:56;4.7;;;2.3;;
78079;SDS011;67298;51.322;5.958;2023-07-02T07:35:35;4.8;;;2.7;;
78079;SDS011;67298;51.322;5.958;2023-07-02T07:40:15;4.1;;;2.7;;
78079;SDS011;67298;51.322;5.958;2023-07-02T07:44:54;6.3;;;2.5;;
78079;SDS011;67298;51.322;5.958;2023-07-02T07:49:33;4.9;;;2.7;;
78079;SDS011;67298;51.322;5.958;2023-07-02T07:54:14;3.9;;;2.7;;
78079;SDS011;67298;51.322;5.958;2023-07-02T07:58:53;5.5;;;3.1;;
78079;SDS011;67298;51.322;5.958;2023-07-02T08:03:32;4.4;;;3.1;;
78079;SDS011;67298;51.322;5.958;2023-07-02T08:08:12;4.9;;;2.8;;
78079;SDS011;67298;51.322;5.958;2023-07-02T08:12:51;7.0;;;3.6;;
78079;SDS011;67298;51.322;5.958;2023-07-02T08:17:30;5.0;;;3.1;;
78079;SDS011;67298;51.322;5.958;2023-07-02T08:22:10;3.5;;;3.3;;
78079;SDS011;67298;51.322;5.958;2023-07-02T08:26:49;4.6;;;3.6;;
78079;SDS011;67298;51.322;5.958;2023-07-02T08:31:29;4.0;;;3.3;;
78079;SDS011;67298;51.322;5.958;2023-07-02T08:36:08;5.6;;;4.2;;
78079;SDS011;67298;51.322;5.958;2023-07-02T08:40:47;6.2;;;4.6;;
78079;SDS011;67298;51.322;5.958;2023-07-02T08:45:27;4.7;;;4.4;;
78079;SDS011;67298;51.322;5.958;2023-07-02T08:50:06;6.3;;;4.5;;
78079;SDS011;67298;51.322;5.958;2023-07-02T08:54:46;3.8;;;3.5;;
78079;SDS011;67298;51.322;5.958;2023-07-02T08:59:25;5.2;;;4.1;;
78079;SDS011;67298;51.322;5.958;2023-07-02T09:04:04;7.0;;;4.2;;
78079;SDS011;67298;51.322;5.958;2023-07-02T09:08:44;4.8;;;2.6;;
78079;SDS011;67298;51.322;5.958;2023-07-02T09:13:23;6.3;;;3.8;;
78079;SDS011;67298;51.322;5.958;2023-07-02T09:18:02;8.5;;;3.6;;
78079;SDS011;67298;51.322;5.958;2023-07-02T09:22:42;3.4;;;3.2;;
78079;SDS011;67298;51.322;5.958;2023-07-02T09:27:21;6.3;;;4.0;;
78079;SDS011;67298;51.322;5.958;2023-07-02T09:32:01;6.1;;;3.5;;
78079;SDS011;67298;51.322;5.958;2023-07-02T09:36:40;7.4;;;3.7;;
78079;SDS011;67298;51.322;5.958;2023-07-02T09:41:20;4.9;;;3.7;;
78079;SDS011;67298;51.322;5.958;2023-07-02T09:45:59;7.1;;;3.4;;
78079;SDS011;67298;51.322;5.958;2023-07-02T09:50:38;6.0;;;3.8;;
78079;SDS011;67298;51.322;5.958;2023-07-02T09:55:18;9.3;;;3.7;;
78079;SDS011;67298;51.322;5.958;2023-07-02T09:59:57;2.0;;;1.9;;
78079;SDS011;67298;51.322;5.958;2023-07-02T10:04:37;6.6;;;3.7;;
78079;SDS011;67298;51.322;5.958;2023-07-02T10:09:16;6.2;;;3.2;;
78079;SDS011;67298;51.322;5.958;2023-07-02T10:13:56;6.8;;;3.6;;
78079;SDS011;67298;51.322;5.958;2023-07-02T10:18:35;8.2;;;2.9;;
78079;SDS011;67298;51.322;5.958;2023-07-02T10:23:14;7.9;;;3.4;;
78079;SDS011;67298;51.322;5.958;2023-07-02T10:27:54;6.8;;;3.6;;
78079;SDS011;67298;51.322;5.958;2023-07-02T10:32:33;4.5;;;3.2;;
78079;SDS011;67298;51.322;5.958;2023-07-02T10:37:13;6.4;;;3.9;;
78079;SDS011;67298;51.322;5.958;2023-07-02T10:41:53;5.7;;;2.8;;
78079;SDS011;67298;51.322;5.958;2023-07-02T10:46:32;3.1;;;2.6;;
78079;SDS011;67298;51.322;5.958;2023-07-02T10:51:12;5.5;;;3.3;;
78079;SDS011;67298;51.322;5.958;2023-07-02T10:55:51;4.9;;;3.1;;
78079;SDS011;67298;51.322;5.958;2023-07-02T11:00:31;2.4;;;2.2;;
78079;SDS011;67298;51.322;5.958;2023-07-02T11:05:10;5.5;;;3.3;;
78079;SDS011;67298;51.322;5.958;2023-07-02T11:09:49;5.2;;;2.9;;
78079;SDS011;67298;51.322;5.958;2023-07-02T11:14:29;6.8;;;3.3;;
78079;SDS011;67298;51.322;5.958;2023-07-02T11:19:08;5.1;;;3.0;;
78079;SDS011;67298;51.322;5.958;2023-07-02T11:23:48;5.0;;;3.0;;
78079;SDS011;67298;51.322;5.958;2023-07-02T11:28:27;5.9;;;3.4;;
78079;SDS011;67298;51.322;5.958;2023-07-02T11:33:06;5.2;;;2.8;;
78079;SDS011;67298;51.322;5.958;2023-07-02T11:37:48;4.8;;;3.4;;
78079;SDS011;67298;51.322;5.958;2023-07-02T11:42:27;5.4;;;2.9;;
78079;SDS011;67298;51.322;5.958;2023-07-02T11:47:07;5.8;;;2.5;;
78079;SDS011;67298;51.322;5.958;2023-07-02T11:51:50;5.8;;;3.0;;
78079;SDS011;67298;51.322;5.958;2023-07-02T11:56:31;7.7;;;4.1;;
78079;SDS011;67298;51.322;5.958;2023-07-02T12:01:10;8.3;;;2.4;;
78079;SDS011;67298;51.322;5.958;2023-07-02T12:05:50;6.5;;;2.9;;
78079;SDS011;67298;51.322;5.958;2023-07-02T12:10:37;7.7;;;2.6;;
78079;SDS011;67298;51.322;5.958;2023-07-02T12:15:16;6.9;;;3.2;;
78079;SDS011;67298;51.322;5.958;2023-07-02T12:19:57;4.1;;;3.0;;
78079;SDS011;67298;51.322;5.958;2023-07-02T12:24:38;6.9;;;2.8;;
78079;SDS011;67298;51.322;5.958;2023-07-02T12:29:23;4.5;;;3.0;;
78079;SDS011;67298;51.322;5.958;2023-07-02T12:34:03;5.9;;;2.7;;
78079;SDS011;67298;51.322;5.958;2023-07-02T12:38:42;10.8;;;1.5;;
78079;SDS011;67298;51.322;5.958;2023-07-02T12:43:22;7.1;;;3.1;;
78079;SDS011;67298;51.322;5.958;2023-07-02T12:48:01;3.2;;;2.4;;
78079;SDS011;67298;51.322;5.958;2023-07-02T12:52:41;4.6;;;2.7;;
78079;SDS011;67298;51.322;5.958;2023-07-02T12:57:22;6.1;;;2.5;;
78079;SDS011;67298;51.322;5.958;2023-07-02T13:02:01;4.1;;;2.1;;
78079;SDS011;67298;51.322;5.958;2023-07-02T13:06:41;4.8;;;2.5;;
78079;SDS011;67298;51.322;5.958;2023-07-02T13:11:20;2.9;;;2.2;;
78079;SDS011;67298;51.322;5.958;2023-07-02T13:16:00;5.8;;;2.8;;
78079;SDS011;67298;51.322;5.958;2023-07-02T13:20:49;9.6;;;3.0;;
78079;SDS011;67298;51.322;5.958;2023-07-02T13:25:28;3.0;;;2.2;;
78079;SDS011;67298;51.322;5.958;2023-07-02T13:30:08;5.5;;;2.6;;
78079;SDS011;67298;51.322;5.958;2023-07-02T13:34:47;8.5;;;2.9;;
78079;SDS011;67298;51.322;5.958;2023-07-02T13:39:27;3.2;;;2.9;;
78079;SDS011;67298;51.322;5.958;2023-07-02T13:44:06;6.6;;;2.9;;
78079;SDS011;67298;51.322;5.958;2023-07-02T13:48:45;5.2;;;3.0;;
78079;SDS011;67298;51.322;5.958;2023-07-02T13:53:25;6.7;;;3.3;;
78079;SDS011;67298;51.322;5.958;2023-07-02T13:58:04;6.6;;;2.6;;
78079;SDS011;67298;51.322;5.958;2023-07-02T14:02:43;3.2;;;2.9;;
78079;SDS011;67298;51.322;5.958;2023-07-02T14:07:23;6.3;;;3.0;;
78079;SDS011;67298;51.322;5.958;2023-07-02T14:12:02;9.8;;;3.1;;
78079;SDS011;67298;51.322;5.958;2023-07-02T14:16:41;6.9;;;3.1;;
78079;SDS011;67298;51.322;5.958;2023-07-02T14:21:21;8.4;;;2.4;;
78079;SDS011;67298;51.322;5.958;2023-07-02T14:26:00;4.0;;;2.4;;
78079;SDS011;67298;51.322;5.958;2023-07-02T14:30:39;5.9;;;2.4;;
78079;SDS011;67298;51.322;5.958;2023-07-02T14:35:19;7.4;;;3.0;;
78079;SDS011;67298;51.322;5.958;2023-07-02T14:39:58;2.1;;;2.0;;
78079;SDS011;67298;51.322;5.958;2023-07-02T14:44:38;6.3;;;2.9;;
78079;SDS011;67298;51.322;5.958;2023-07-02T14:49:18;3.5;;;2.6;;
78079;SDS011;67298;51.322;5.958;2023-07-02T14:53:57;7.2;;;2.9;;
78079;SDS011;67298;51.322;5.958;2023-07-02T14:58:36;9.5;;;2.9;;
78079;SDS011;67298;51.322;5.958;2023-07-02T15:03:16;9.7;;;3.0;;
78079;SDS011;67298;51.322;5.958;2023-07-02T15:07:55;5.9;;;3.0;;
78079;SDS011;67298;51.322;5.958;2023-07-02T15:12:34;5.4;;;2.4;;
78079;SDS011;67298;51.322;5.958;2023-07-02T15:17:14;0.3;;;0.3;;
78079;SDS011;67298;51.322;5.958;2023-07-02T15:21:53;4.5;;;2.5;;
78079;SDS011;67298;51.322;5.958;2023-07-02T15:26:33;6.1;;;2.8;;
78079;SDS011;67298;51.322;5.958;2023-07-02T15:31:12;6.3;;;3.0;;
78079;SDS011;67298;51.322;5.958;2023-07-02T15:35:51;5.3;;;2.7;;
78079;SDS011;67298;51.322;5.958;2023-07-02T15:40:31;5.5;;;1.6;;
78079;SDS011;67298;51.322;5.958;2023-07-02T15:45:10;4.9;;;2.7;;
78079;SDS011;67298;51.322;5.958;2023-07-02T15:49:50;7.2;;;2.4;;
78079;SDS011;67298;51.322;5.958;2023-07-02T15:54:29;5.1;;;2.6;;
78079;SDS011;67298;51.322;5.958;2023-07-02T15:59:08;5.2;;;2.3;;
78079;SDS011;67298;51.322;5.958;2023-07-02T16:03:48;10.7;;;2.7;;
78079;SDS011;67298;51.322;5.958;2023-07-02T16:08:28;8.1;;;2.6;;
78079;SDS011;67298;51.322;5.958;2023-07-02T16:13:07;7.8;;;2.7;;
78079;SDS011;67298;51.322;5.958;2023-07-02T16:17:47;1.6;;;1.5;;
78079;SDS011;67298;51.322;5.958;2023-07-02T16:22:26;7.1;;;2.7;;
78079;SDS011;67298;51.322;5.958;2023-07-02T16:27:05;7.1;;;2.3;;
78079;SDS011;67298;51.322;5.958;2023-07-02T16:31:45;7.1;;;2.7;;
78079;SDS011;67298;51.322;5.958;2023-07-02T16:36:24;9.4;;;2.8;;
78079;SDS011;67298;51.322;5.958;2023-07-02T16:41:03;6.1;;;2.6;;
78079;SDS011;67298;51.322;5.958;2023-07-02T16:45:43;4.7;;;2.6;;
78079;SDS011;67298;51.322;5.958;2023-07-02T16:50:23;4.2;;;2.2;;
78079;SDS011;67298;51.322;5.958;2023-07-02T16:55:02;6.2;;;2.7;;
78079;SDS011;67298;51.322;5.958;2023-07-02T16:59:42;7.3;;;2.8;;
78079;SDS011;67298;51.322;5.958;2023-07-02T17:04:21;5.3;;;1.8;;
78079;SDS011;67298;51.322;5.958;2023-07-02T17:09:01;5.2;;;2.6;;
78079;SDS011;67298;51.322;5.958;2023-07-02T17:13:40;4.9;;;2.5;;
78079;SDS011;67298;51.322;5.958;2023-07-02T17:18:20;12.5;;;3.2;;
78079;SDS011;67298;51.322;5.958;2023-07-02T17:22:59;7.9;;;3.0;;
78079;SDS011;67298;51.322;5.958;2023-07-02T17:27:39;3.0;;;2.4;;
78079;SDS011;67298;51.322;5.958;2023-07-02T17:32:18;5.2;;;2.8;;
78079;SDS011;67298;51.322;5.958;2023-07-02T17:36:58;5.4;;;2.6;;
78079;SDS011;67298;51.322;5.958;2023-07-02T17:41:37;2.6;;;1.9;;
78079;SDS011;67298;51.322;5.958;2023-07-02T17:46:17;4.9;;;2.3;;
78079;SDS011;67298;51.322;5.958;2023-07-02T17:50:56;4.9;;;2.5;;
78079;SDS011;67298;51.322;5.958;2023-07-02T17:55:36;4.0;;;1.9;;
78079;SDS011;67298;51.322;5.958;2023-07-02T18:00:15;4.1;;;2.1;;
78079;SDS011;67298;51.322;5.958;2023-07-02T18:04:54;3.8;;;2.3;;
78079;SDS011;67298;51.322;5.958;2023-07-02T18:09:34;5.5;;;2.8;;
78079;SDS011;67298;51.322;5.958;2023-07-02T18:14:14;4.8;;;2.4;;
78079;SDS011;67298;51.322;5.958;2023-07-02T18:18:53;3.1;;;2.3;;
78079;SDS011;67298;51.322;5.958;2023-07-02T18:23:33;4.5;;;2.5;;
78079;SDS011;67298;51.322;5.958;2023-07-02T18:28:12;5.2;;;2.3;;
78079;SDS011;67298;51.322;5.958;2023-07-02T18:32:52;5.9;;;3.0;;
78079;SDS011;67298;51.322;5.958;2023-07-02T18:37:31;6.4;;;2.2;;
78079;SDS011;67298;51.322;5.958;2023-07-02T18:42:11;6.0;;;1.4;;
78079;SDS011;67298;51.322;5.958;2023-07-02T18:46:50;4.5;;;2.0;;
78079;SDS011;67298;51.322;5.958;2023-07-02T18:51:29;3.5;;;2.3;;
78079;SDS011;67298;51.322;5.958;2023-07-02T18:56:09;3.5;;;2.0;;
78079;SDS011;67298;51.322;5.958;2023-07-02T19:00:48;7.4;;;2.2;;
78079;SDS011;67298;51.322;5.958;2023-07-02T19:05:32;3.6;;;1.8;;
78079;SDS011;67298;51.322;5.958;2023-07-02T19:10:11;4.3;;;2.0;;
78079;SDS011;67298;51.322;5.958;2023-07-02T19:14:50;7.3;;;2.5;;
78079;SDS011;67298;51.322;5.958;2023-07-02T19:19:30;3.5;;;1.3;;
78079;SDS011;67298;51.322;5.958;2023-07-02T19:24:10;4.6;;;2.0;;
78079;SDS011;67298;51.322;5.958;2023-07-02T19:28:51;2.0;;;1.4;;
78079;SDS011;67298;51.322;5.958;2023-07-02T19:33:30;3.8;;;1.7;;
78079;SDS011;67298;51.322;5.958;2023-07-02T19:38:10;2.4;;;1.9;;
78079;SDS011;67298;51.322;5.958;2023-07-02T19:42:49;8.2;;;1.9;;
78079;SDS011;67298;51.322;5.958;2023-07-02T19:47:28;5.9;;;2.0;;
78079;SDS011;67298;51.322;5.958;2023-07-02T19:52:08;3.6;;;1.6;;
78079;SDS011;67298;51.322;5.958;2023-07-02T19:56:48;1.5;;;1.2;;
78079;SDS011;67298;51.322;5.958;2023-07-02T20:01:27;3.5;;;1.8;;
78079;SDS011;67298;51.322;5.958;2023-07-02T20:06:11;5.4;;;2.3;;
78079;SDS011;67298;51.322;5.958;2023-07-02T20:10:51;5.3;;;2.7;;
78079;SDS011;67298;51.322;5.958;2023-07-02T20:15:30;4.4;;;1.7;;
78079;SDS011;67298;51.322;5.958;2023-07-02T20:20:09;3.0;;;1.9;;
78079;SDS011;67298;51.322;5.958;2023-07-02T20:24:49;4.5;;;2.4;;
78079;SDS011;67298;51.322;5.958;2023-07-02T20:29:28;4.0;;;2.0;;
78079;SDS011;67298;51.322;5.958;2023-07-02T20:34:09;2.9;;;2.7;;
78079;SDS011;67298;51.322;5.958;2023-07-02T20:38:48;2.8;;;2.0;;
78079;SDS011;67298;51.322;5.958;2023-07-02T20:43:28;4.5;;;1.7;;
78079;SDS011;67298;51.322;5.958;2023-07-02T20:48:07;4.2;;;1.7;;
78079;SDS011;67298;51.322;5.958;2023-07-02T20:52:47;4.0;;;1.7;;
78079;SDS011;67298;51.322;5.958;2023-07-02T20:57:26;2.9;;;1.1;;
78079;SDS011;67298;51.322;5.958;2023-07-02T21:02:06;6.8;;;1.9;;
78079;SDS011;67298;51.322;5.958;2023-07-02T21:06:45;6.5;;;1.6;;
78079;SDS011;67298;51.322;5.958;2023-07-02T21:11:24;4.4;;;1.5;;
78079;SDS011;67298;51.322;5.958;2023-07-02T21:16:05;1.9;;;1.3;;
78079;SDS011;67298;51.322;5.958;2023-07-02T21:20:44;2.0;;;1.4;;
78079;SDS011;67298;51.322;5.958;2023-07-02T21:25:23;3.9;;;1.8;;
78079;SDS011;67298;51.322;5.958;2023-07-02T21:30:03;3.3;;;1.6;;
78079;SDS011;67298;51.322;5.958;2023-07-02T21:34:42;2.8;;;1.9;;
78079;SDS011;67298;51.322;5.958;2023-07-02T21:39:22;2.5;;;1.3;;
78079;SDS011;67298;51.322;5.958;2023-07-02T21:44:01;2.2;;;1.2;;
78079;SDS011;67298;51.322;5.958;2023-07-02T21:48:41;2.7;;;1.3;;
78079;SDS011;67298;51.322;5.958;2023-07-02T21:53:20;2.7;;;1.2;;
78079;SDS011;67298;51.322;5.958;2023-07-02T21:58:00;6.4;;;1.5;;
78079;SDS011;67298;51.322;5.958;2023-07-02T22:02:39;3.4;;;1.2;;
78079;SDS011;67298;51.322;5.958;2023-07-02T22:07:18;4.5;;;1.3;;
78079;SDS011;67298;51.322;5.958;2023-07-02T22:11:58;3.6;;;1.5;;
78079;SDS011;67298;51.322;5.958;2023-07-02T22:16:38;2.3;;;1.2;;
78079;SDS011;67298;51.322;5.958;2023-07-02T22:21:17;2.9;;;1.2;;
78079;SDS011;67298;51.322;5.958;2023-07-02T22:25:57;3.1;;;1.4;;
78079;SDS011;67298;51.322;5.958;2023-07-02T22:30:36;3.8;;;1.4;;
78079;SDS011;67298;51.322;5.958;2023-07-02T22:35:15;1.2;;;0.8;;
78079;SDS011;67298;51.322;5.958;2023-07-02T22:39:55;3.4;;;1.8;;
78079;SDS011;67298;51.322;5.958;2023-07-02T22:44:34;4.2;;;1.3;;
78079;SDS011;67298;51.322;5.958;2023-07-02T22:49:14;4.3;;;1.9;;
78079;SDS011;67298;51.322;5.958;2023-07-02T22:53:53;4.1;;;1.8;;
78079;SDS011;67298;51.322;5.958;2023-07-02T22:58:32;4.6;;;1.7;;
78079;SDS011;67298;51.322;5.958;2023-07-02T23:03:12;3.5;;;1.9;;
78079;SDS011;67298;51.322;5.958;2023-07-02T23:07:51;3.6;;;1.9;;
78079;SDS011;67298;51.322;5.958;2023-07-02T23:12:30;1.3;;;0.9;;
78079;SDS011;67298;51.322;5.958;2023-07-02T23:17:10;3.5;;;1.8;;
78079;SDS011;67298;51.322;5.958;2023-07-02T23:21:49;8.7;;;2.2;;
78079;SDS011;67298;51.322;5.958;2023-07-02T23:26:29;5.8;;;2.1;;
78079;SDS011;67298;51.322;5.958;2023-07-02T23:31:08;5.1;;;1.9;;
78079;SDS011;67298;51.322;5.958;2023-07-02T23:35:47;1.5;;;1.4;;
78079;SDS011;67298;51.322;5.958;2023-07-02T23:40:32;2.4;;;1.5;;
78079;SDS011;67298;51.322;5.958;2023-07-02T23:45:11;4.7;;;1.6;;
78079;SDS011;67298;51.322;5.958;2023-07-02T23:49:50;5.9;;;2.0;;
78079;SDS011;67298;51.322;5.958;2023-07-02T23:54:30;4.5;;;2.5;;
78079;SDS011;67298;51.322;5.958;2023-07-02T23:59:09;4.8;;;1.7;;
